sensor_id;sensor_type;location;lat;lon;timestamp;temperature;humidity
5192;DHT22;2615;44.524;11.284;2024-02-23T00:02:25;15.00;47.30
5192;DHT22;2615;44.524;11.284;2024-02-23T00:04:53;15.00;47.30
5192;DHT22;2615;44.524;11.284;2024-02-23T00:07:21;15.00;47.20
5192;DHT22;2615;44.524;11.284;2024-02-23T00:09:49;15.00;47.20
5192;DHT22;2615;44.524;11.284;2024-02-23T00:12:19;15.00;47.20
5192;DHT22;2615;44.524;11.284;2024-02-23T00:14:47;15.00;47.20
5192;DHT22;2615;44.524;11.284;2024-02-23T00:17:17;15.00;47.30
5192;DHT22;2615;44.524;11.284;2024-02-23T00:19:46;15.00;47.30
5192;DHT22;2615;44.524;11.284;2024-02-23T00:22:14;15.00;47.20
5192;DHT22;2615;44.524;11.284;2024-02-23T00:24:42;15.00;47.30
5192;DHT22;2615;44.524;11.284;2024-02-23T00:27:11;15.00;47.30
5192;DHT22;2615;44.524;11.284;2024-02-23T00:29:40;15.00;47.20
5192;DHT22;2615;44.524;11.284;2024-02-23T00:32:09;15.00;47.40
5192;DHT22;2615;44.524;11.284;2024-02-23T00:34:37;15.00;47.40
5192;DHT22;2615;44.524;11.284;2024-02-23T00:37:06;15.00;47.30
5192;DHT22;2615;44.524;11.284;2024-02-23T00:39:34;15.00;47.30
5192;DHT22;2615;44.524;11.284;2024-02-23T00:42:04;15.00;47.30
5192;DHT22;2615;44.524;11.284;2024-02-23T00:44:32;15.00;47.40
5192;DHT22;2615;44.524;11.284;2024-02-23T00:47:02;15.00;47.30
5192;DHT22;2615;44.524;11.284;2024-02-23T00:49:31;15.00;47.30
5192;DHT22;2615;44.524;11.284;2024-02-23T00:51:59;15.00;47.30
5192;DHT22;2615;44.524;11.284;2024-02-23T00:54:27;15.00;47.30
5192;DHT22;2615;44.524;11.284;2024-02-23T00:56:55;15.00;47.40
5192;DHT22;2615;44.524;11.284;2024-02-23T00:59:23;15.00;47.40
5192;DHT22;2615;44.524;11.284;2024-02-23T01:01:52;15.00;47.40
5192;DHT22;2615;44.524;11.284;2024-02-23T01:04:21;15.00;47.40
5192;DHT22;2615;44.524;11.284;2024-02-23T01:06:49;15.00;47.40
5192;DHT22;2615;44.524;11.284;2024-02-23T01:09:17;15.00;47.50
5192;DHT22;2615;44.524;11.284;2024-02-23T01:11:47;15.00;47.50
5192;DHT22;2615;44.524;11.284;2024-02-23T01:14:16;15.00;47.50
5192;DHT22;2615;44.524;11.284;2024-02-23T01:16:44;15.00;47.50
5192;DHT22;2615;44.524;11.284;2024-02-23T01:19:12;15.00;47.50
5192;DHT22;2615;44.524;11.284;2024-02-23T01:21:41;15.00;47.50
5192;DHT22;2615;44.524;11.284;2024-02-23T01:24:10;15.00;47.60
5192;DHT22;2615;44.524;11.284;2024-02-23T01:26:38;15.00;47.60
5192;DHT22;2615;44.524;11.284;2024-02-23T01:29:09;15.10;47.60
5192;DHT22;2615;44.524;11.284;2024-02-23T01:31:37;15.10;47.60
5192;DHT22;2615;44.524;11.284;2024-02-23T01:34:05;15.10;47.60
5192;DHT22;2615;44.524;11.284;2024-02-23T01:36:33;15.10;47.70
5192;DHT22;2615;44.524;11.284;2024-02-23T01:39:04;15.00;47.60
5192;DHT22;2615;44.524;11.284;2024-02-23T01:41:32;15.10;47.70
5192;DHT22;2615;44.524;11.284;2024-02-23T01:44:00;15.10;47.80
5192;DHT22;2615;44.524;11.284;2024-02-23T01:46:29;15.00;47.70
5192;DHT22;2615;44.524;11.284;2024-02-23T01:48:58;15.00;47.80
5192;DHT22;2615;44.524;11.284;2024-02-23T01:51:27;15.00;47.80
5192;DHT22;2615;44.524;11.284;2024-02-23T01:53:55;15.00;47.80
5192;DHT22;2615;44.524;11.284;2024-02-23T01:56:25;15.00;47.80
5192;DHT22;2615;44.524;11.284;2024-02-23T01:58:55;15.00;47.90
5192;DHT22;2615;44.524;11.284;2024-02-23T02:01:23;15.00;47.90
5192;DHT22;2615;44.524;11.284;2024-02-23T02:03:51;15.00;48.00
5192;DHT22;2615;44.524;11.284;2024-02-23T02:06:20;15.00;48.00
5192;DHT22;2615;44.524;11.284;2024-02-23T02:08:48;15.00;48.00
5192;DHT22;2615;44.524;11.284;2024-02-23T02:11:16;15.00;48.00
5192;DHT22;2615;44.524;11.284;2024-02-23T02:13:46;15.00;47.90
5192;DHT22;2615;44.524;11.284;2024-02-23T02:16:14;15.00;48.00
5192;DHT22;2615;44.524;11.284;2024-02-23T02:18:42;15.00;48.10
5192;DHT22;2615;44.524;11.284;2024-02-23T02:21:11;15.00;48.00
5192;DHT22;2615;44.524;11.284;2024-02-23T02:23:39;15.00;48.00
5192;DHT22;2615;44.524;11.284;2024-02-23T02:26:07;15.00;48.00
5192;DHT22;2615;44.524;11.284;2024-02-23T02:28:36;15.00;48.00
5192;DHT22;2615;44.524;11.284;2024-02-23T02:31:06;15.00;48.00
5192;DHT22;2615;44.524;11.284;2024-02-23T02:33:34;15.00;48.00
5192;DHT22;2615;44.524;11.284;2024-02-23T02:36:02;15.00;48.00
5192;DHT22;2615;44.524;11.284;2024-02-23T02:38:30;15.00;48.00
5192;DHT22;2615;44.524;11.284;2024-02-23T02:41:00;15.00;48.10
5192;DHT22;2615;44.524;11.284;2024-02-23T02:43:28;15.00;48.10
5192;DHT22;2615;44.524;11.284;2024-02-23T02:45:57;15.00;48.00
5192;DHT22;2615;44.524;11.284;2024-02-23T02:48:26;15.00;48.10
5192;DHT22;2615;44.524;11.284;2024-02-23T02:50:55;15.00;48.10
5192;DHT22;2615;44.524;11.284;2024-02-23T02:53:23;15.00;48.00
5192;DHT22;2615;44.524;11.284;2024-02-23T02:55:51;15.00;48.00
5192;DHT22;2615;44.524;11.284;2024-02-23T02:58:19;15.00;48.00
5192;DHT22;2615;44.524;11.284;2024-02-23T03:00:47;15.10;48.10
5192;DHT22;2615;44.524;11.284;2024-02-23T03:03:16;15.10;48.10
5192;DHT22;2615;44.524;11.284;2024-02-23T03:05:45;15.10;48.10
5192;DHT22;2615;44.524;11.284;2024-02-23T03:08:13;15.10;48.10
5192;DHT22;2615;44.524;11.284;2024-02-23T03:10:41;15.10;48.20
5192;DHT22;2615;44.524;11.284;2024-02-23T03:13:10;15.10;48.20
5192;DHT22;2615;44.524;11.284;2024-02-23T03:15:38;15.10;48.20
5192;DHT22;2615;44.524;11.284;2024-02-23T03:18:06;15.10;48.20
5192;DHT22;2615;44.524;11.284;2024-02-23T03:20:36;15.10;48.20
5192;DHT22;2615;44.524;11.284;2024-02-23T03:23:06;15.10;48.20
5192;DHT22;2615;44.524;11.284;2024-02-23T03:25:34;15.10;48.30
5192;DHT22;2615;44.524;11.284;2024-02-23T03:28:02;15.10;48.30
5192;DHT22;2615;44.524;11.284;2024-02-23T03:30:30;15.10;48.30
5192;DHT22;2615;44.524;11.284;2024-02-23T03:33:03;15.20;48.40
5192;DHT22;2615;44.524;11.284;2024-02-23T03:35:31;15.20;48.40
5192;DHT22;2615;44.524;11.284;2024-02-23T03:37:59;15.20;48.50
5192;DHT22;2615;44.524;11.284;2024-02-23T03:40:29;15.20;48.50
5192;DHT22;2615;44.524;11.284;2024-02-23T03:42:57;15.20;48.50
5192;DHT22;2615;44.524;11.284;2024-02-23T03:45:25;15.20;48.50
5192;DHT22;2615;44.524;11.284;2024-02-23T03:47:53;15.20;48.50
5192;DHT22;2615;44.524;11.284;2024-02-23T03:50:22;15.20;48.50
5192;DHT22;2615;44.524;11.284;2024-02-23T03:52:50;15.20;48.60
5192;DHT22;2615;44.524;11.284;2024-02-23T03:55:18;15.30;48.70
5192;DHT22;2615;44.524;11.284;2024-02-23T03:57:48;15.30;48.70
5192;DHT22;2615;44.524;11.284;2024-02-23T04:00:17;15.30;48.70
5192;DHT22;2615;44.524;11.284;2024-02-23T04:02:46;15.30;48.80
5192;DHT22;2615;44.524;11.284;2024-02-23T04:05:14;15.30;48.80
5192;DHT22;2615;44.524;11.284;2024-02-23T04:07:42;15.20;49.20
5192;DHT22;2615;44.524;11.284;2024-02-23T04:10:10;15.20;48.70
5192;DHT22;2615;44.524;11.284;2024-02-23T04:12:43;15.20;48.70
5192;DHT22;2615;44.524;11.284;2024-02-23T04:15:12;15.20;48.80
5192;DHT22;2615;44.524;11.284;2024-02-23T04:17:41;15.20;48.80
5192;DHT22;2615;44.524;11.284;2024-02-23T04:20:10;15.20;48.90
5192;DHT22;2615;44.524;11.284;2024-02-23T04:22:38;15.20;48.90
5192;DHT22;2615;44.524;11.284;2024-02-23T04:25:06;15.20;48.90
5192;DHT22;2615;44.524;11.284;2024-02-23T04:27:35;15.20;48.90
5192;DHT22;2615;44.524;11.284;2024-02-23T04:30:03;15.20;48.90
5192;DHT22;2615;44.524;11.284;2024-02-23T04:32:34;15.20;48.90
5192;DHT22;2615;44.524;11.284;2024-02-23T04:35:03;15.20;48.90
5192;DHT22;2615;44.524;11.284;2024-02-23T04:37:31;15.30;49.10
5192;DHT22;2615;44.524;11.284;2024-02-23T04:40:02;15.30;49.10
5192;DHT22;2615;44.524;11.284;2024-02-23T04:42:32;15.30;49.10
5192;DHT22;2615;44.524;11.284;2024-02-23T04:45:00;15.30;49.10
5192;DHT22;2615;44.524;11.284;2024-02-23T04:47:28;15.30;49.20
5192;DHT22;2615;44.524;11.284;2024-02-23T04:49:58;15.30;49.20
5192;DHT22;2615;44.524;11.284;2024-02-23T04:52:27;15.30;49.30
5192;DHT22;2615;44.524;11.284;2024-02-23T04:54:55;15.30;49.20
5192;DHT22;2615;44.524;11.284;2024-02-23T04:57:23;15.30;49.20
5192;DHT22;2615;44.524;11.284;2024-02-23T04:59:51;15.30;49.20
5192;DHT22;2615;44.524;11.284;2024-02-23T05:02:19;15.30;49.30
5192;DHT22;2615;44.524;11.284;2024-02-23T05:04:47;15.30;49.30
5192;DHT22;2615;44.524;11.284;2024-02-23T05:07:17;15.30;49.20
5192;DHT22;2615;44.524;11.284;2024-02-23T05:09:45;15.40;49.30
5192;DHT22;2615;44.524;11.284;2024-02-23T05:12:13;15.40;49.30
5192;DHT22;2615;44.524;11.284;2024-02-23T05:14:41;15.40;49.30
5192;DHT22;2615;44.524;11.284;2024-02-23T05:17:09;15.40;49.40
5192;DHT22;2615;44.524;11.284;2024-02-23T05:19:37;15.40;49.30
5192;DHT22;2615;44.524;11.284;2024-02-23T05:22:06;15.40;49.30
5192;DHT22;2615;44.524;11.284;2024-02-23T05:24:35;15.40;49.30
5192;DHT22;2615;44.524;11.284;2024-02-23T05:27:04;15.40;49.30
5192;DHT22;2615;44.524;11.284;2024-02-23T05:29:32;15.40;49.30
5192;DHT22;2615;44.524;11.284;2024-02-23T05:32:00;15.40;49.30
5192;DHT22;2615;44.524;11.284;2024-02-23T05:34:29;15.40;49.30
5192;DHT22;2615;44.524;11.284;2024-02-23T05:36:57;15.40;49.30
5192;DHT22;2615;44.524;11.284;2024-02-23T05:39:25;15.40;49.30
5192;DHT22;2615;44.524;11.284;2024-02-23T05:41:55;15.40;49.30
5192;DHT22;2615;44.524;11.284;2024-02-23T05:44:24;15.40;49.30
5192;DHT22;2615;44.524;11.284;2024-02-23T05:46:52;15.40;49.40
5192;DHT22;2615;44.524;11.284;2024-02-23T05:49:20;15.40;49.40
5192;DHT22;2615;44.524;11.284;2024-02-23T05:51:49;15.40;49.40
5192;DHT22;2615;44.524;11.284;2024-02-23T05:54:17;15.40;49.40
5192;DHT22;2615;44.524;11.284;2024-02-23T05:56:45;15.50;49.50
5192;DHT22;2615;44.524;11.284;2024-02-23T05:59:14;15.50;49.50
5192;DHT22;2615;44.524;11.284;2024-02-23T06:01:43;15.50;49.50
5192;DHT22;2615;44.524;11.284;2024-02-23T06:04:11;15.40;49.50
5192;DHT22;2615;44.524;11.284;2024-02-23T06:06:41;15.40;49.50
5192;DHT22;2615;44.524;11.284;2024-02-23T06:09:10;15.40;49.60
5192;DHT22;2615;44.524;11.284;2024-02-23T06:11:38;15.40;49.70
5192;DHT22;2615;44.524;11.284;2024-02-23T06:14:06;15.40;49.80
5192;DHT22;2615;44.524;11.284;2024-02-23T06:16:36;15.40;49.90
5192;DHT22;2615;44.524;11.284;2024-02-23T06:19:04;15.40;50.00
5192;DHT22;2615;44.524;11.284;2024-02-23T06:21:32;15.40;50.00
5192;DHT22;2615;44.524;11.284;2024-02-23T06:24:01;15.40;50.10
5192;DHT22;2615;44.524;11.284;2024-02-23T06:26:29;15.40;50.20
5192;DHT22;2615;44.524;11.284;2024-02-23T06:28:57;15.40;50.30
5192;DHT22;2615;44.524;11.284;2024-02-23T06:31:26;15.40;50.40
5192;DHT22;2615;44.524;11.284;2024-02-23T06:33:56;15.40;50.40
5192;DHT22;2615;44.524;11.284;2024-02-23T06:36:24;15.40;50.50
5192;DHT22;2615;44.524;11.284;2024-02-23T06:38:52;15.40;50.60
5192;DHT22;2615;44.524;11.284;2024-02-23T06:41:20;15.40;50.70
5192;DHT22;2615;44.524;11.284;2024-02-23T06:43:47;15.40;50.70
5192;DHT22;2615;44.524;11.284;2024-02-23T06:46:19;15.40;50.80
5192;DHT22;2615;44.524;11.284;2024-02-23T06:48:47;15.40;50.90
5192;DHT22;2615;44.524;11.284;2024-02-23T06:51:17;15.40;51.50
5192;DHT22;2615;44.524;11.284;2024-02-23T06:53:47;15.40;50.90
5192;DHT22;2615;44.524;11.284;2024-02-23T06:56:15;15.40;51.00
5192;DHT22;2615;44.524;11.284;2024-02-23T06:58:43;15.40;51.00
5192;DHT22;2615;44.524;11.284;2024-02-23T07:01:12;15.50;51.10
5192;DHT22;2615;44.524;11.284;2024-02-23T07:03:40;15.50;51.20
5192;DHT22;2615;44.524;11.284;2024-02-23T07:06:11;15.50;51.20
5192;DHT22;2615;44.524;11.284;2024-02-23T07:08:41;15.50;51.20
5192;DHT22;2615;44.524;11.284;2024-02-23T07:11:09;15.50;51.20
5192;DHT22;2615;44.524;11.284;2024-02-23T07:13:37;15.60;51.40
5192;DHT22;2615;44.524;11.284;2024-02-23T07:16:06;15.60;51.40
5192;DHT22;2615;44.524;11.284;2024-02-23T07:18:34;15.60;51.40
5192;DHT22;2615;44.524;11.284;2024-02-23T07:21:03;15.60;51.40
5192;DHT22;2615;44.524;11.284;2024-02-23T07:23:31;15.70;51.50
5192;DHT22;2615;44.524;11.284;2024-02-23T07:26:01;15.70;51.50
5192;DHT22;2615;44.524;11.284;2024-02-23T07:28:29;15.70;51.50
5192;DHT22;2615;44.524;11.284;2024-02-23T07:30:57;15.80;51.60
5192;DHT22;2615;44.524;11.284;2024-02-23T07:33:25;15.80;51.60
5192;DHT22;2615;44.524;11.284;2024-02-23T07:35:54;15.80;51.60
5192;DHT22;2615;44.524;11.284;2024-02-23T07:38:22;15.80;51.50
5192;DHT22;2615;44.524;11.284;2024-02-23T07:40:50;15.80;51.60
5192;DHT22;2615;44.524;11.284;2024-02-23T07:43:20;15.90;51.60
5192;DHT22;2615;44.524;11.284;2024-02-23T07:45:48;15.90;51.60
5192;DHT22;2615;44.524;11.284;2024-02-23T07:48:16;15.90;51.60
5192;DHT22;2615;44.524;11.284;2024-02-23T07:50:44;15.90;51.60
5192;DHT22;2615;44.524;11.284;2024-02-23T07:53:12;15.90;51.60
5192;DHT22;2615;44.524;11.284;2024-02-23T07:55:41;15.90;52.20
5192;DHT22;2615;44.524;11.284;2024-02-23T07:58:09;15.90;51.70
5192;DHT22;2615;44.524;11.284;2024-02-23T08:00:38;16.00;51.80
5192;DHT22;2615;44.524;11.284;2024-02-23T08:03:06;16.00;51.80
5192;DHT22;2615;44.524;11.284;2024-02-23T08:05:35;16.00;51.80
5192;DHT22;2615;44.524;11.284;2024-02-23T08:08:04;16.10;51.90
5192;DHT22;2615;44.524;11.284;2024-02-23T08:10:34;16.10;51.80
5192;DHT22;2615;44.524;11.284;2024-02-23T08:13:02;16.10;51.90
5192;DHT22;2615;44.524;11.284;2024-02-23T08:15:30;16.10;52.00
5192;DHT22;2615;44.524;11.284;2024-02-23T08:18:00;16.10;52.00
5192;DHT22;2615;44.524;11.284;2024-02-23T08:20:28;16.20;52.10
5192;DHT22;2615;44.524;11.284;2024-02-23T08:22:56;16.20;52.10
5192;DHT22;2615;44.524;11.284;2024-02-23T08:25:24;16.30;52.00
5192;DHT22;2615;44.524;11.284;2024-02-23T08:27:55;16.30;52.00
5192;DHT22;2615;44.524;11.284;2024-02-23T08:30:23;16.30;52.10
5192;DHT22;2615;44.524;11.284;2024-02-23T08:32:52;16.30;52.10
5192;DHT22;2615;44.524;11.284;2024-02-23T08:35:21;16.30;52.10
5192;DHT22;2615;44.524;11.284;2024-02-23T08:37:49;16.40;52.20
5192;DHT22;2615;44.524;11.284;2024-02-23T08:40:18;16.40;52.20
5192;DHT22;2615;44.524;11.284;2024-02-23T08:42:47;16.40;52.20
5192;DHT22;2615;44.524;11.284;2024-02-23T08:45:16;16.50;52.20
5192;DHT22;2615;44.524;11.284;2024-02-23T08:47:45;16.60;52.20
5192;DHT22;2615;44.524;11.284;2024-02-23T08:50:13;16.70;52.20
5192;DHT22;2615;44.524;11.284;2024-02-23T08:52:43;16.70;52.10
5192;DHT22;2615;44.524;11.284;2024-02-23T08:55:11;16.80;52.10
5192;DHT22;2615;44.524;11.284;2024-02-23T08:57:39;16.80;52.00
5192;DHT22;2615;44.524;11.284;2024-02-23T09:00:09;16.80;51.90
5192;DHT22;2615;44.524;11.284;2024-02-23T09:02:39;16.90;51.90
5192;DHT22;2615;44.524;11.284;2024-02-23T09:05:09;16.90;51.90
5192;DHT22;2615;44.524;11.284;2024-02-23T09:07:37;17.00;52.00
5192;DHT22;2615;44.524;11.284;2024-02-23T09:10:08;17.10;52.10
5192;DHT22;2615;44.524;11.284;2024-02-23T09:12:36;17.20;52.00
5192;DHT22;2615;44.524;11.284;2024-02-23T09:15:05;17.40;52.00
5192;DHT22;2615;44.524;11.284;2024-02-23T09:17:34;17.40;51.80
5192;DHT22;2615;44.524;11.284;2024-02-23T09:20:03;17.60;51.90
5192;DHT22;2615;44.524;11.284;2024-02-23T09:22:32;17.60;51.70
5192;DHT22;2615;44.524;11.284;2024-02-23T09:25:00;17.60;51.60
5192;DHT22;2615;44.524;11.284;2024-02-23T09:27:29;17.60;51.60
5192;DHT22;2615;44.524;11.284;2024-02-23T09:29:57;17.50;51.40
5192;DHT22;2615;44.524;11.284;2024-02-23T09:32:26;17.40;51.20
5192;DHT22;2615;44.524;11.284;2024-02-23T09:34:54;17.10;51.10
5192;DHT22;2615;44.524;11.284;2024-02-23T09:37:23;16.90;51.20
5192;DHT22;2615;44.524;11.284;2024-02-23T09:39:51;16.70;51.40
5192;DHT22;2615;44.524;11.284;2024-02-23T09:42:22;16.50;51.40
5192;DHT22;2615;44.524;11.284;2024-02-23T09:44:58;16.30;51.50
5192;DHT22;2615;44.524;11.284;2024-02-23T09:47:27;16.10;51.70
5192;DHT22;2615;44.524;11.284;2024-02-23T09:49:56;15.80;51.80
5192;DHT22;2615;44.524;11.284;2024-02-23T09:52:24;15.70;52.00
5192;DHT22;2615;44.524;11.284;2024-02-23T09:54:56;15.50;52.00
5192;DHT22;2615;44.524;11.284;2024-02-23T09:57:24;15.30;52.20
5192;DHT22;2615;44.524;11.284;2024-02-23T09:59:54;15.20;52.50
5192;DHT22;2615;44.524;11.284;2024-02-23T10:02:23;15.10;52.70
5192;DHT22;2615;44.524;11.284;2024-02-23T10:04:51;15.00;52.90
5192;DHT22;2615;44.524;11.284;2024-02-23T10:07:21;14.90;53.10
5192;DHT22;2615;44.524;11.284;2024-02-23T10:09:49;14.80;53.30
5192;DHT22;2615;44.524;11.284;2024-02-23T10:12:17;14.70;53.40
5192;DHT22;2615;44.524;11.284;2024-02-23T10:14:46;14.60;53.70
5192;DHT22;2615;44.524;11.284;2024-02-23T10:17:15;14.50;53.90
5192;DHT22;2615;44.524;11.284;2024-02-23T10:19:44;14.40;54.00
5192;DHT22;2615;44.524;11.284;2024-02-23T10:22:12;14.30;54.20
5192;DHT22;2615;44.524;11.284;2024-02-23T10:24:42;14.20;54.40
5192;DHT22;2615;44.524;11.284;2024-02-23T10:27:10;14.20;54.70
5192;DHT22;2615;44.524;11.284;2024-02-23T10:29:38;14.20;54.90
5192;DHT22;2615;44.524;11.284;2024-02-23T10:32:07;14.10;55.00
5192;DHT22;2615;44.524;11.284;2024-02-23T10:34:39;14.10;55.20
5192;DHT22;2615;44.524;11.284;2024-02-23T10:37:11;14.00;55.20
5192;DHT22;2615;44.524;11.284;2024-02-23T10:39:39;13.90;55.30
5192;DHT22;2615;44.524;11.284;2024-02-23T10:42:09;13.90;55.50
5192;DHT22;2615;44.524;11.284;2024-02-23T10:44:37;13.70;55.60
5192;DHT22;2615;44.524;11.284;2024-02-23T10:47:07;13.70;55.80
5192;DHT22;2615;44.524;11.284;2024-02-23T10:49:38;13.60;56.00
5192;DHT22;2615;44.524;11.284;2024-02-23T10:52:07;13.60;56.10
5192;DHT22;2615;44.524;11.284;2024-02-23T10:54:39;13.50;56.30
5192;DHT22;2615;44.524;11.284;2024-02-23T10:57:08;13.50;56.40
5192;DHT22;2615;44.524;11.284;2024-02-23T10:59:36;13.40;56.50
5192;DHT22;2615;44.524;11.284;2024-02-23T11:02:05;13.40;56.70
5192;DHT22;2615;44.524;11.284;2024-02-23T11:04:34;13.30;56.80
5192;DHT22;2615;44.524;11.284;2024-02-23T11:07:13;13.20;56.90
5192;DHT22;2615;44.524;11.284;2024-02-23T11:09:42;13.20;57.10
5192;DHT22;2615;44.524;11.284;2024-02-23T11:12:10;13.10;57.10
5192;DHT22;2615;44.524;11.284;2024-02-23T11:14:38;13.10;57.40
5192;DHT22;2615;44.524;11.284;2024-02-23T11:17:07;13.00;57.40
5192;DHT22;2615;44.524;11.284;2024-02-23T11:19:46;13.00;57.60
5192;DHT22;2615;44.524;11.284;2024-02-23T11:22:25;13.00;57.70
5192;DHT22;2615;44.524;11.284;2024-02-23T11:25:05;12.90;57.80
5192;DHT22;2615;44.524;11.284;2024-02-23T11:27:36;12.90;57.90
5192;DHT22;2615;44.524;11.284;2024-02-23T11:30:06;12.90;58.00
5192;DHT22;2615;44.524;11.284;2024-02-23T11:32:37;12.80;58.10
5192;DHT22;2615;44.524;11.284;2024-02-23T11:35:07;12.80;58.30
5192;DHT22;2615;44.524;11.284;2024-02-23T11:37:46;12.70;58.40
5192;DHT22;2615;44.524;11.284;2024-02-23T11:40:15;12.70;58.50
5192;DHT22;2615;44.524;11.284;2024-02-23T11:42:43;12.60;58.50
5192;DHT22;2615;44.524;11.284;2024-02-23T11:45:11;12.60;58.70
5192;DHT22;2615;44.524;11.284;2024-02-23T11:47:39;12.60;58.90
5192;DHT22;2615;44.524;11.284;2024-02-23T11:50:08;12.50;58.90
5192;DHT22;2615;44.524;11.284;2024-02-23T11:52:37;12.50;59.00
5192;DHT22;2615;44.524;11.284;2024-02-23T11:55:08;12.50;59.20
5192;DHT22;2615;44.524;11.284;2024-02-23T11:57:36;12.40;59.20
5192;DHT22;2615;44.524;11.284;2024-02-23T12:00:14;12.40;59.40
5192;DHT22;2615;44.524;11.284;2024-02-23T12:02:43;12.40;59.40
5192;DHT22;2615;44.524;11.284;2024-02-23T12:05:13;12.40;59.60
5192;DHT22;2615;44.524;11.284;2024-02-23T12:07:42;12.40;59.70
5192;DHT22;2615;44.524;11.284;2024-02-23T12:10:15;12.40;59.80
5192;DHT22;2615;44.524;11.284;2024-02-23T12:12:43;12.30;59.80
5192;DHT22;2615;44.524;11.284;2024-02-23T12:15:11;12.30;59.90
5192;DHT22;2615;44.524;11.284;2024-02-23T12:17:46;12.30;59.90
5192;DHT22;2615;44.524;11.284;2024-02-23T12:20:15;12.20;60.00
5192;DHT22;2615;44.524;11.284;2024-02-23T12:22:44;12.20;60.10
5192;DHT22;2615;44.524;11.284;2024-02-23T12:25:12;12.20;60.10
5192;DHT22;2615;44.524;11.284;2024-02-23T12:27:43;12.20;60.30
5192;DHT22;2615;44.524;11.284;2024-02-23T12:30:13;12.20;60.40
5192;DHT22;2615;44.524;11.284;2024-02-23T12:32:43;12.20;60.50
5192;DHT22;2615;44.524;11.284;2024-02-23T12:35:11;12.20;60.50
5192;DHT22;2615;44.524;11.284;2024-02-23T12:37:40;12.20;60.70
5192;DHT22;2615;44.524;11.284;2024-02-23T12:40:11;12.20;60.70
5192;DHT22;2615;44.524;11.284;2024-02-23T12:42:40;12.20;60.80
5192;DHT22;2615;44.524;11.284;2024-02-23T12:45:10;12.20;60.90
5192;DHT22;2615;44.524;11.284;2024-02-23T12:47:39;12.20;61.00
5192;DHT22;2615;44.524;11.284;2024-02-23T12:50:08;12.30;61.30
5192;DHT22;2615;44.524;11.284;2024-02-23T12:52:37;12.30;61.20
5192;DHT22;2615;44.524;11.284;2024-02-23T12:55:05;12.30;61.30
5192;DHT22;2615;44.524;11.284;2024-02-23T12:57:33;12.30;61.40
5192;DHT22;2615;44.524;11.284;2024-02-23T13:00:02;12.30;61.40
5192;DHT22;2615;44.524;11.284;2024-02-23T13:02:33;12.30;61.50
5192;DHT22;2615;44.524;11.284;2024-02-23T13:05:01;12.30;61.60
5192;DHT22;2615;44.524;11.284;2024-02-23T13:07:30;12.40;61.80
5192;DHT22;2615;44.524;11.284;2024-02-23T13:09:58;12.40;61.90
5192;DHT22;2615;44.524;11.284;2024-02-23T13:12:26;12.30;61.70
5192;DHT22;2615;44.524;11.284;2024-02-23T13:14:54;12.30;61.70
5192;DHT22;2615;44.524;11.284;2024-02-23T13:17:22;12.30;61.80
5192;DHT22;2615;44.524;11.284;2024-02-23T13:19:52;12.30;61.90
5192;DHT22;2615;44.524;11.284;2024-02-23T13:22:37;12.30;61.90
5192;DHT22;2615;44.524;11.284;2024-02-23T13:25:05;12.30;62.00
5192;DHT22;2615;44.524;11.284;2024-02-23T13:27:34;12.30;62.10
5192;DHT22;2615;44.524;11.284;2024-02-23T13:30:03;12.30;62.20
5192;DHT22;2615;44.524;11.284;2024-02-23T13:32:31;12.30;62.30
5192;DHT22;2615;44.524;11.284;2024-02-23T13:35:01;12.30;62.30
5192;DHT22;2615;44.524;11.284;2024-02-23T13:37:31;12.30;62.50
5192;DHT22;2615;44.524;11.284;2024-02-23T13:40:00;12.30;62.50
5192;DHT22;2615;44.524;11.284;2024-02-23T13:42:28;12.30;62.60
5192;DHT22;2615;44.524;11.284;2024-02-23T13:44:56;12.30;62.70
5192;DHT22;2615;44.524;11.284;2024-02-23T13:47:26;12.30;62.70
5192;DHT22;2615;44.524;11.284;2024-02-23T13:49:55;12.30;62.70
5192;DHT22;2615;44.524;11.284;2024-02-23T13:52:25;12.30;62.80
5192;DHT22;2615;44.524;11.284;2024-02-23T13:54:53;12.30;62.90
5192;DHT22;2615;44.524;11.284;2024-02-23T13:57:23;12.40;63.10
5192;DHT22;2615;44.524;11.284;2024-02-23T13:59:51;12.30;63.00
5192;DHT22;2615;44.524;11.284;2024-02-23T14:02:25;12.30;63.10
5192;DHT22;2615;44.524;11.284;2024-02-23T14:04:59;12.30;63.20
5192;DHT22;2615;44.524;11.284;2024-02-23T14:07:30;12.30;63.20
5192;DHT22;2615;44.524;11.284;2024-02-23T14:09:58;12.30;63.20
5192;DHT22;2615;44.524;11.284;2024-02-23T14:12:27;12.30;63.30
5192;DHT22;2615;44.524;11.284;2024-02-23T14:14:55;12.30;63.30
5192;DHT22;2615;44.524;11.284;2024-02-23T14:17:23;12.30;63.40
5192;DHT22;2615;44.524;11.284;2024-02-23T14:19:51;12.30;63.40
5192;DHT22;2615;44.524;11.284;2024-02-23T14:22:20;12.30;63.50
5192;DHT22;2615;44.524;11.284;2024-02-23T14:24:49;12.30;63.60
5192;DHT22;2615;44.524;11.284;2024-02-23T14:27:17;12.30;63.60
5192;DHT22;2615;44.524;11.284;2024-02-23T14:29:46;12.30;63.70
5192;DHT22;2615;44.524;11.284;2024-02-23T14:32:16;12.30;63.60
5192;DHT22;2615;44.524;11.284;2024-02-23T14:34:44;12.30;63.70
5192;DHT22;2615;44.524;11.284;2024-02-23T14:37:13;12.30;63.70
5192;DHT22;2615;44.524;11.284;2024-02-23T14:39:41;12.30;63.90
5192;DHT22;2615;44.524;11.284;2024-02-23T14:42:14;12.30;63.90
5192;DHT22;2615;44.524;11.284;2024-02-23T14:44:43;12.30;64.00
5192;DHT22;2615;44.524;11.284;2024-02-23T14:47:11;12.30;64.10
5192;DHT22;2615;44.524;11.284;2024-02-23T14:49:39;12.30;64.10
5192;DHT22;2615;44.524;11.284;2024-02-23T14:52:07;12.30;64.20
5192;DHT22;2615;44.524;11.284;2024-02-23T14:54:36;12.30;64.20
5192;DHT22;2615;44.524;11.284;2024-02-23T14:57:04;12.40;64.40
5192;DHT22;2615;44.524;11.284;2024-02-23T14:59:34;12.40;64.40
5192;DHT22;2615;44.524;11.284;2024-02-23T15:02:03;12.40;64.40
5192;DHT22;2615;44.524;11.284;2024-02-23T15:04:32;12.40;64.40
5192;DHT22;2615;44.524;11.284;2024-02-23T15:07:00;12.40;64.50
5192;DHT22;2615;44.524;11.284;2024-02-23T15:09:28;12.40;64.50
5192;DHT22;2615;44.524;11.284;2024-02-23T15:11:56;12.30;64.50
5192;DHT22;2615;44.524;11.284;2024-02-23T15:14:24;12.30;64.50
5192;DHT22;2615;44.524;11.284;2024-02-23T15:16:54;12.30;64.50
5192;DHT22;2615;44.524;11.284;2024-02-23T15:19:23;12.30;64.60
5192;DHT22;2615;44.524;11.284;2024-02-23T15:21:52;12.30;64.60
5192;DHT22;2615;44.524;11.284;2024-02-23T15:24:21;12.30;64.60
5192;DHT22;2615;44.524;11.284;2024-02-23T15:26:51;12.30;64.60
5192;DHT22;2615;44.524;11.284;2024-02-23T15:29:19;12.30;64.70
5192;DHT22;2615;44.524;11.284;2024-02-23T15:31:47;12.30;64.80
5192;DHT22;2615;44.524;11.284;2024-02-23T15:34:17;12.20;64.80
5192;DHT22;2615;44.524;11.284;2024-02-23T15:36:46;12.30;65.00
5192;DHT22;2615;44.524;11.284;2024-02-23T15:39:14;12.30;65.00
5192;DHT22;2615;44.524;11.284;2024-02-23T15:41:42;12.30;65.00
5192;DHT22;2615;44.524;11.284;2024-02-23T15:44:10;12.20;65.00
5192;DHT22;2615;44.524;11.284;2024-02-23T15:46:39;12.20;65.00
5192;DHT22;2615;44.524;11.284;2024-02-23T15:49:08;12.20;65.10
5192;DHT22;2615;44.524;11.284;2024-02-23T15:51:57;12.20;65.10
5192;DHT22;2615;44.524;11.284;2024-02-23T15:54:27;12.20;65.10
5192;DHT22;2615;44.524;11.284;2024-02-23T15:56:57;12.20;65.20